sensor_id;sensor_type;location;lat;lon;timestamp;pressure;altitude;pressure_sealevel;temperature;humidity
64340;BME280;63709;53.258;-8.814;2023-12-04T00:00:17;100633.06;;;5.51;100.00
64340;BME280;63709;53.258;-8.814;2023-12-04T00:02:43;100628.69;;;5.66;100.00
64340;BME280;63709;53.258;-8.814;2023-12-04T00:05:08;100632.81;;;5.72;100.00
64340;BME280;63709;53.258;-8.814;2023-12-04T00:07:34;100630.09;;;5.57;100.00
64340;BME280;63709;53.258;-8.814;2023-12-04T00:09:59;100630.16;;;5.72;100.00
64340;BME280;63709;53.258;-8.814;2023-12-04T00:12:24;100633.78;;;5.39;100.00
64340;BME280;63709;53.258;-8.814;2023-12-04T00:14:50;100634.38;;;5.44;100.00
64340;BME280;63709;53.258;-8.814;2023-12-04T00:17:16;100632.75;;;5.57;100.00
64340;BME280;63709;53.258;-8.814;2023-12-04T00:19:42;100636.09;;;5.45;100.00
64340;BME280;63709;53.258;-8.814;2023-12-04T00:22:07;100642.41;;;5.27;100.00
64340;BME280;63709;53.258;-8.814;2023-12-04T00:24:33;100631.63;;;5.62;100.00
64340;BME280;63709;53.258;-8.814;2023-12-04T00:26:58;100636.63;;;5.66;100.00
64340;BME280;63709;53.258;-8.814;2023-12-04T00:29:24;100628.66;;;5.36;100.00
64340;BME280;63709;53.258;-8.814;2023-12-04T00:31:49;100632.41;;;5.64;100.00
64340;BME280;63709;53.258;-8.814;2023-12-04T00:34:14;100620.78;;;5.50;100.00
64340;BME280;63709;53.258;-8.814;2023-12-04T00:36:40;100621.88;;;5.62;100.00
64340;BME280;63709;53.258;-8.814;2023-12-04T00:39:05;100625.66;;;5.42;100.00
64340;BME280;63709;53.258;-8.814;2023-12-04T00:41:31;100621.38;;;5.71;100.00
64340;BME280;63709;53.258;-8.814;2023-12-04T00:43:57;100621.72;;;5.65;100.00
64340;BME280;63709;53.258;-8.814;2023-12-04T00:46:22;100620.53;;;5.55;100.00
64340;BME280;63709;53.258;-8.814;2023-12-04T00:48:48;100628.53;;;5.69;100.00
64340;BME280;63709;53.258;-8.814;2023-12-04T00:51:13;100623.78;;;5.60;100.00
64340;BME280;63709;53.258;-8.814;2023-12-04T00:53:39;100618.28;;;5.63;100.00
64340;BME280;63709;53.258;-8.814;2023-12-04T00:56:04;100623.59;;;5.47;100.00
64340;BME280;63709;53.258;-8.814;2023-12-04T00:58:31;100618.16;;;5.50;100.00
64340;BME280;63709;53.258;-8.814;2023-12-04T01:00:57;100630.88;;;5.44;100.00
64340;BME280;63709;53.258;-8.814;2023-12-04T01:03:22;100620.88;;;5.49;100.00
64340;BME280;63709;53.258;-8.814;2023-12-04T01:05:48;100622.63;;;5.34;100.00
64340;BME280;63709;53.258;-8.814;2023-12-04T01:08:13;100618.84;;;5.38;100.00
64340;BME280;63709;53.258;-8.814;2023-12-04T01:10:39;100608.34;;;5.21;100.00
64340;BME280;63709;53.258;-8.814;2023-12-04T01:13:05;100621.06;;;5.30;100.00
64340;BME280;63709;53.258;-8.814;2023-12-04T01:15:30;100625.44;;;5.31;100.00
64340;BME280;63709;53.258;-8.814;2023-12-04T01:17:56;100624.13;;;5.22;100.00
64340;BME280;63709;53.258;-8.814;2023-12-04T01:20:21;100630.09;;;5.26;100.00
64340;BME280;63709;53.258;-8.814;2023-12-04T01:22:47;100631.81;;;5.11;100.00
64340;BME280;63709;53.258;-8.814;2023-12-04T01:25:12;100634.13;;;5.17;100.00
64340;BME280;63709;53.258;-8.814;2023-12-04T01:27:37;100636.09;;;5.14;100.00
64340;BME280;63709;53.258;-8.814;2023-12-04T01:30:05;100616.63;;;4.99;100.00
64340;BME280;63709;53.258;-8.814;2023-12-04T01:32:31;100625.34;;;5.17;100.00
64340;BME280;63709;53.258;-8.814;2023-12-04T01:34:56;100634.22;;;5.16;100.00
64340;BME280;63709;53.258;-8.814;2023-12-04T01:37:21;100633.88;;;5.22;100.00
64340;BME280;63709;53.258;-8.814;2023-12-04T01:39:47;100634.03;;;5.19;100.00
64340;BME280;63709;53.258;-8.814;2023-12-04T01:42:12;100634.41;;;5.13;100.00
64340;BME280;63709;53.258;-8.814;2023-12-04T01:44:38;100636.41;;;5.07;100.00
64340;BME280;63709;53.258;-8.814;2023-12-04T01:47:03;100636.34;;;5.09;100.00
64340;BME280;63709;53.258;-8.814;2023-12-04T01:49:30;100644.94;;;4.97;100.00
64340;BME280;63709;53.258;-8.814;2023-12-04T01:51:56;100650.06;;;5.00;100.00
64340;BME280;63709;53.258;-8.814;2023-12-04T01:54:22;100642.81;;;5.03;100.00
64340;BME280;63709;53.258;-8.814;2023-12-04T01:56:48;100638.47;;;5.02;100.00
64340;BME280;63709;53.258;-8.814;2023-12-04T01:59:14;100651.13;;;5.13;100.00
64340;BME280;63709;53.258;-8.814;2023-12-04T02:01:41;100645.56;;;5.02;100.00
64340;BME280;63709;53.258;-8.814;2023-12-04T02:04:07;100643.16;;;4.97;100.00
64340;BME280;63709;53.258;-8.814;2023-12-04T02:06:32;100646.56;;;4.83;100.00
64340;BME280;63709;53.258;-8.814;2023-12-04T02:08:58;100657.50;;;4.93;100.00
64340;BME280;63709;53.258;-8.814;2023-12-04T02:11:23;100645.34;;;4.73;100.00
64340;BME280;63709;53.258;-8.814;2023-12-04T02:13:49;100662.16;;;4.88;100.00
64340;BME280;63709;53.258;-8.814;2023-12-04T02:16:16;100663.50;;;4.64;100.00
64340;BME280;63709;53.258;-8.814;2023-12-04T02:18:44;100651.47;;;4.74;100.00
64340;BME280;63709;53.258;-8.814;2023-12-04T02:21:09;100657.72;;;4.73;100.00
64340;BME280;63709;53.258;-8.814;2023-12-04T02:23:35;100658.13;;;4.81;100.00
64340;BME280;63709;53.258;-8.814;2023-12-04T02:26:09;100635.59;;;4.58;100.00
64340;BME280;63709;53.258;-8.814;2023-12-04T02:28:37;100639.22;;;4.55;100.00
64340;BME280;63709;53.258;-8.814;2023-12-04T02:31:04;100664.09;;;4.69;100.00
64340;BME280;63709;53.258;-8.814;2023-12-04T02:33:30;100655.22;;;4.70;100.00
64340;BME280;63709;53.258;-8.814;2023-12-04T02:35:57;100657.41;;;4.61;100.00
64340;BME280;63709;53.258;-8.814;2023-12-04T02:38:23;100661.16;;;4.57;100.00
64340;BME280;63709;53.258;-8.814;2023-12-04T02:40:50;100666.69;;;4.53;100.00
64340;BME280;63709;53.258;-8.814;2023-12-04T02:43:15;100668.56;;;4.33;100.00
64340;BME280;63709;53.258;-8.814;2023-12-04T02:45:41;100660.88;;;4.46;100.00
64340;BME280;63709;53.258;-8.814;2023-12-04T02:48:07;100654.66;;;4.47;100.00
64340;BME280;63709;53.258;-8.814;2023-12-04T02:50:32;100663.97;;;4.37;100.00
64340;BME280;63709;53.258;-8.814;2023-12-04T02:52:58;100677.13;;;4.39;100.00
64340;BME280;63709;53.258;-8.814;2023-12-04T02:55:23;100679.44;;;4.45;100.00
64340;BME280;63709;53.258;-8.814;2023-12-04T02:57:49;100674.25;;;4.43;100.00
64340;BME280;63709;53.258;-8.814;2023-12-04T03:00:15;100683.72;;;4.47;100.00
64340;BME280;63709;53.258;-8.814;2023-12-04T03:02:40;100678.44;;;4.47;100.00
64340;BME280;63709;53.258;-8.814;2023-12-04T03:05:06;100691.19;;;4.39;100.00
64340;BME280;63709;53.258;-8.814;2023-12-04T03:07:31;100673.69;;;4.36;100.00
64340;BME280;63709;53.258;-8.814;2023-12-04T03:09:57;100667.66;;;4.17;100.00
64340;BME280;63709;53.258;-8.814;2023-12-04T03:12:22;100684.22;;;4.38;100.00
64340;BME280;63709;53.258;-8.814;2023-12-04T03:14:47;100680.13;;;4.48;100.00
64340;BME280;63709;53.258;-8.814;2023-12-04T03:17:13;100689.56;;;4.36;100.00
64340;BME280;63709;53.258;-8.814;2023-12-04T03:19:38;100692.28;;;4.35;100.00
64340;BME280;63709;53.258;-8.814;2023-12-04T03:22:04;100696.72;;;4.34;100.00
64340;BME280;63709;53.258;-8.814;2023-12-04T03:24:29;100686.91;;;4.36;100.00
64340;BME280;63709;53.258;-8.814;2023-12-04T03:26:55;100684.81;;;4.43;100.00
64340;BME280;63709;53.258;-8.814;2023-12-04T03:29:20;100692.19;;;4.36;100.00
64340;BME280;63709;53.258;-8.814;2023-12-04T03:31:45;100695.28;;;4.45;100.00
64340;BME280;63709;53.258;-8.814;2023-12-04T03:34:11;100687.84;;;4.35;100.00
64340;BME280;63709;53.258;-8.814;2023-12-04T03:36:36;100697.22;;;4.41;100.00
64340;BME280;63709;53.258;-8.814;2023-12-04T03:39:02;100696.94;;;4.30;100.00
64340;BME280;63709;53.258;-8.814;2023-12-04T03:41:28;100698.03;;;4.43;100.00
64340;BME280;63709;53.258;-8.814;2023-12-04T03:43:53;100694.28;;;4.30;100.00
64340;BME280;63709;53.258;-8.814;2023-12-04T03:46:18;100691.19;;;4.39;100.00
64340;BME280;63709;53.258;-8.814;2023-12-04T03:48:44;100686.22;;;4.33;100.00
64340;BME280;63709;53.258;-8.814;2023-12-04T03:51:10;100685.16;;;4.20;100.00
64340;BME280;63709;53.258;-8.814;2023-12-04T03:53:35;100686.31;;;4.31;100.00
64340;BME280;63709;53.258;-8.814;2023-12-04T03:56:01;100679.53;;;4.26;100.00
64340;BME280;63709;53.258;-8.814;2023-12-04T03:58:26;100691.97;;;4.24;100.00
64340;BME280;63709;53.258;-8.814;2023-12-04T04:00:52;100681.72;;;4.18;100.00
64340;BME280;63709;53.258;-8.814;2023-12-04T04:03:17;100682.50;;;4.02;100.00
64340;BME280;63709;53.258;-8.814;2023-12-04T04:05:42;100680.31;;;4.28;100.00
64340;BME280;63709;53.258;-8.814;2023-12-04T04:08:08;100685.00;;;4.23;100.00
64340;BME280;63709;53.258;-8.814;2023-12-04T04:10:34;100686.38;;;4.30;100.00
64340;BME280;63709;53.258;-8.814;2023-12-04T04:12:59;100677.44;;;4.32;100.00
64340;BME280;63709;53.258;-8.814;2023-12-04T04:15:25;100680.06;;;4.32;100.00
64340;BME280;63709;53.258;-8.814;2023-12-04T04:17:51;100682.34;;;4.23;100.00
64340;BME280;63709;53.258;-8.814;2023-12-04T04:20:17;100679.06;;;4.18;100.00
64340;BME280;63709;53.258;-8.814;2023-12-04T04:22:43;100681.06;;;4.30;100.00
64340;BME280;63709;53.258;-8.814;2023-12-04T04:25:08;100693.38;;;4.31;100.00
64340;BME280;63709;53.258;-8.814;2023-12-04T04:27:34;100689.34;;;4.24;100.00
64340;BME280;63709;53.258;-8.814;2023-12-04T04:30:00;100677.28;;;4.01;100.00
64340;BME280;63709;53.258;-8.814;2023-12-04T04:32:26;100694.47;;;4.09;100.00
64340;BME280;63709;53.258;-8.814;2023-12-04T04:34:51;100703.84;;;4.15;100.00
64340;BME280;63709;53.258;-8.814;2023-12-04T04:37:17;100704.56;;;4.01;100.00
64340;BME280;63709;53.258;-8.814;2023-12-04T04:39:42;100701.06;;;4.18;100.00
64340;BME280;63709;53.258;-8.814;2023-12-04T04:42:08;100704.00;;;3.95;100.00
64340;BME280;63709;53.258;-8.814;2023-12-04T04:44:33;100704.56;;;4.01;100.00
64340;BME280;63709;53.258;-8.814;2023-12-04T04:46:59;100708.34;;;3.96;100.00
64340;BME280;63709;53.258;-8.814;2023-12-04T04:49:24;100708.59;;;4.08;100.00
64340;BME280;63709;53.258;-8.814;2023-12-04T04:51:49;100708.75;;;4.05;100.00
64340;BME280;63709;53.258;-8.814;2023-12-04T04:54:15;100710.44;;;4.06;100.00
64340;BME280;63709;53.258;-8.814;2023-12-04T04:56:40;100704.53;;;3.84;100.00
64340;BME280;63709;53.258;-8.814;2023-12-04T04:59:06;100714.66;;;3.93;100.00
64340;BME280;63709;53.258;-8.814;2023-12-04T05:01:31;100711.44;;;3.86;100.00
64340;BME280;63709;53.258;-8.814;2023-12-04T05:03:57;100711.22;;;3.91;100.00
64340;BME280;63709;53.258;-8.814;2023-12-04T05:06:22;100711.72;;;3.80;100.00
64340;BME280;63709;53.258;-8.814;2023-12-04T05:08:48;100714.84;;;3.71;100.00
64340;BME280;63709;53.258;-8.814;2023-12-04T05:11:17;100716.06;;;3.81;100.00
64340;BME280;63709;53.258;-8.814;2023-12-04T05:13:42;100718.94;;;3.77;100.00
64340;BME280;63709;53.258;-8.814;2023-12-04T05:16:08;100715.97;;;3.66;100.00
64340;BME280;63709;53.258;-8.814;2023-12-04T05:18:34;100709.09;;;3.80;100.00
64340;BME280;63709;53.258;-8.814;2023-12-04T05:20:59;100719.88;;;3.76;100.00
64340;BME280;63709;53.258;-8.814;2023-12-04T05:23:25;100719.09;;;3.74;100.00
64340;BME280;63709;53.258;-8.814;2023-12-04T05:25:50;100716.00;;;3.83;100.00
64340;BME280;63709;53.258;-8.814;2023-12-04T05:28:16;100722.16;;;3.83;100.00
64340;BME280;63709;53.258;-8.814;2023-12-04T05:30:41;100715.16;;;3.82;100.00
64340;BME280;63709;53.258;-8.814;2023-12-04T05:33:07;100718.56;;;3.84;100.00
64340;BME280;63709;53.258;-8.814;2023-12-04T05:35:32;100718.34;;;3.89;100.00
64340;BME280;63709;53.258;-8.814;2023-12-04T05:38:00;100724.84;;;3.82;100.00
64340;BME280;63709;53.258;-8.814;2023-12-04T05:40:25;100724.19;;;3.96;100.00
64340;BME280;63709;53.258;-8.814;2023-12-04T05:42:51;100731.34;;;3.94;100.00
64340;BME280;63709;53.258;-8.814;2023-12-04T05:45:16;100730.31;;;3.96;100.00
64340;BME280;63709;53.258;-8.814;2023-12-04T05:47:41;100731.94;;;3.99;100.00
64340;BME280;63709;53.258;-8.814;2023-12-04T05:50:07;100733.28;;;4.07;100.00
64340;BME280;63709;53.258;-8.814;2023-12-04T05:52:33;100726.91;;;4.11;100.00
64340;BME280;63709;53.258;-8.814;2023-12-04T05:54:58;100729.97;;;4.21;100.00
64340;BME280;63709;53.258;-8.814;2023-12-04T05:57:24;100734.38;;;4.21;100.00
64340;BME280;63709;53.258;-8.814;2023-12-04T05:59:49;100735.25;;;4.21;100.00
64340;BME280;63709;53.258;-8.814;2023-12-04T06:02:14;100734.94;;;4.27;100.00
64340;BME280;63709;53.258;-8.814;2023-12-04T06:04:40;100739.69;;;4.21;100.00
64340;BME280;63709;53.258;-8.814;2023-12-04T06:07:06;100732.03;;;4.15;100.00
64340;BME280;63709;53.258;-8.814;2023-12-04T06:09:33;100746.81;;;4.19;100.00
64340;BME280;63709;53.258;-8.814;2023-12-04T06:11:59;100741.22;;;4.25;100.00
64340;BME280;63709;53.258;-8.814;2023-12-04T06:14:29;100745.34;;;4.13;100.00
64340;BME280;63709;53.258;-8.814;2023-12-04T06:16:55;100754.34;;;4.26;100.00
64340;BME280;63709;53.258;-8.814;2023-12-04T06:19:21;100753.69;;;4.23;100.00
64340;BME280;63709;53.258;-8.814;2023-12-04T06:21:46;100746.97;;;4.16;100.00
64340;BME280;63709;53.258;-8.814;2023-12-04T06:24:12;100750.94;;;4.24;100.00
64340;BME280;63709;53.258;-8.814;2023-12-04T06:26:41;100752.78;;;4.22;100.00
64340;BME280;63709;53.258;-8.814;2023-12-04T06:29:08;100748.81;;;4.13;100.00
64340;BME280;63709;53.258;-8.814;2023-12-04T06:31:33;100763.63;;;3.99;100.00
64340;BME280;63709;53.258;-8.814;2023-12-04T06:33:59;100757.56;;;3.97;100.00
64340;BME280;63709;53.258;-8.814;2023-12-04T06:36:25;100758.81;;;3.90;100.00
64340;BME280;63709;53.258;-8.814;2023-12-04T06:38:52;100737.88;;;3.68;100.00
64340;BME280;63709;53.258;-8.814;2023-12-04T06:41:18;100760.25;;;3.78;100.00
64340;BME280;63709;53.258;-8.814;2023-12-04T06:43:46;100760.84;;;3.66;100.00
64340;BME280;63709;53.258;-8.814;2023-12-04T06:46:14;100740.00;;;3.59;100.00
64340;BME280;63709;53.258;-8.814;2023-12-04T06:48:42;100749.66;;;3.60;100.00
64340;BME280;63709;53.258;-8.814;2023-12-04T06:51:08;100774.47;;;3.75;100.00
64340;BME280;63709;53.258;-8.814;2023-12-04T06:53:33;100778.22;;;3.70;100.00
64340;BME280;63709;53.258;-8.814;2023-12-04T06:55:59;100773.25;;;3.63;100.00
64340;BME280;63709;53.258;-8.814;2023-12-04T06:58:24;100775.25;;;3.58;100.00
64340;BME280;63709;53.258;-8.814;2023-12-04T07:00:50;100777.47;;;3.49;100.00
64340;BME280;63709;53.258;-8.814;2023-12-04T07:03:15;100781.72;;;3.51;100.00
64340;BME280;63709;53.258;-8.814;2023-12-04T07:05:41;100771.16;;;3.51;100.00
64340;BME280;63709;53.258;-8.814;2023-12-04T07:08:07;100775.16;;;3.41;100.00
64340;BME280;63709;53.258;-8.814;2023-12-04T07:10:32;100780.81;;;3.52;100.00
64340;BME280;63709;53.258;-8.814;2023-12-04T07:12:58;100778.94;;;3.54;100.00
64340;BME280;63709;53.258;-8.814;2023-12-04T07:15:23;100781.66;;;3.53;100.00
64340;BME280;63709;53.258;-8.814;2023-12-04T07:17:49;100782.78;;;3.47;100.00
64340;BME280;63709;53.258;-8.814;2023-12-04T07:20:14;100768.19;;;3.40;100.00
64340;BME280;63709;53.258;-8.814;2023-12-04T07:22:39;100793.44;;;3.46;100.00
64340;BME280;63709;53.258;-8.814;2023-12-04T07:25:06;100786.28;;;3.29;100.00
64340;BME280;63709;53.258;-8.814;2023-12-04T07:27:34;100787.66;;;3.37;100.00
64340;BME280;63709;53.258;-8.814;2023-12-04T07:30:00;100794.69;;;3.37;100.00
64340;BME280;63709;53.258;-8.814;2023-12-04T07:32:26;100791.19;;;3.18;100.00
64340;BME280;63709;53.258;-8.814;2023-12-04T07:34:51;100792.75;;;3.22;100.00
64340;BME280;63709;53.258;-8.814;2023-12-04T07:37:17;100794.28;;;3.27;100.00
64340;BME280;63709;53.258;-8.814;2023-12-04T07:39:43;100779.19;;;3.10;100.00
64340;BME280;63709;53.258;-8.814;2023-12-04T07:42:11;100802.06;;;3.30;100.00
64340;BME280;63709;53.258;-8.814;2023-12-04T07:44:37;100800.31;;;3.29;100.00
64340;BME280;63709;53.258;-8.814;2023-12-04T07:47:02;100803.16;;;3.25;100.00
64340;BME280;63709;53.258;-8.814;2023-12-04T07:49:29;100814.78;;;3.21;100.00
64340;BME280;63709;53.258;-8.814;2023-12-04T07:51:54;100807.13;;;3.14;100.00
64340;BME280;63709;53.258;-8.814;2023-12-04T07:54:20;100811.84;;;3.08;100.00
64340;BME280;63709;53.258;-8.814;2023-12-04T07:56:47;100822.19;;;3.12;100.00
64340;BME280;63709;53.258;-8.814;2023-12-04T07:59:13;100805.16;;;3.20;100.00
64340;BME280;63709;53.258;-8.814;2023-12-04T08:01:38;100818.53;;;3.15;100.00
64340;BME280;63709;53.258;-8.814;2023-12-04T08:04:04;100823.97;;;3.12;100.00
64340;BME280;63709;53.258;-8.814;2023-12-04T08:06:30;100823.34;;;3.26;100.00
64340;BME280;63709;53.258;-8.814;2023-12-04T08:08:56;100825.34;;;3.21;100.00
64340;BME280;63709;53.258;-8.814;2023-12-04T08:11:22;100824.94;;;3.09;100.00
64340;BME280;63709;53.258;-8.814;2023-12-04T08:13:47;100835.16;;;3.17;100.00
64340;BME280;63709;53.258;-8.814;2023-12-04T08:16:16;100798.88;;;2.83;100.00
64340;BME280;63709;53.258;-8.814;2023-12-04T08:18:41;100839.06;;;3.08;100.00
64340;BME280;63709;53.258;-8.814;2023-12-04T08:21:07;100839.91;;;2.88;100.00
64340;BME280;63709;53.258;-8.814;2023-12-04T08:23:33;100856.66;;;2.87;100.00
64340;BME280;63709;53.258;-8.814;2023-12-04T08:25:58;100861.53;;;2.76;100.00
64340;BME280;63709;53.258;-8.814;2023-12-04T08:28:23;100867.59;;;2.99;100.00
64340;BME280;63709;53.258;-8.814;2023-12-04T08:30:49;100869.31;;;3.00;100.00
64340;BME280;63709;53.258;-8.814;2023-12-04T08:33:14;100868.06;;;3.08;100.00
64340;BME280;63709;53.258;-8.814;2023-12-04T08:35:40;100872.50;;;3.08;100.00
64340;BME280;63709;53.258;-8.814;2023-12-04T08:38:06;100872.75;;;3.02;100.00
64340;BME280;63709;53.258;-8.814;2023-12-04T08:40:31;100872.53;;;3.06;100.00
64340;BME280;63709;53.258;-8.814;2023-12-04T08:42:57;100868.31;;;3.02;100.00
64340;BME280;63709;53.258;-8.814;2023-12-04T08:45:22;100873.06;;;3.14;100.00
64340;BME280;63709;53.258;-8.814;2023-12-04T08:47:47;100875.19;;;3.06;100.00
64340;BME280;63709;53.258;-8.814;2023-12-04T08:50:14;100872.19;;;3.14;100.00
64340;BME280;63709;53.258;-8.814;2023-12-04T08:52:40;100853.31;;;3.04;100.00
64340;BME280;63709;53.258;-8.814;2023-12-04T08:55:07;100876.38;;;3.20;100.00
64340;BME280;63709;53.258;-8.814;2023-12-04T08:57:32;100885.19;;;3.19;100.00
64340;BME280;63709;53.258;-8.814;2023-12-04T08:59:58;100878.66;;;3.07;100.00
64340;BME280;63709;53.258;-8.814;2023-12-04T09:02:24;100881.31;;;3.07;100.00
64340;BME280;63709;53.258;-8.814;2023-12-04T09:04:49;100880.78;;;2.99;100.00
64340;BME280;63709;53.258;-8.814;2023-12-04T09:07:14;100877.38;;;2.97;100.00
64340;BME280;63709;53.258;-8.814;2023-12-04T09:09:40;100885.72;;;3.06;100.00
64340;BME280;63709;53.258;-8.814;2023-12-04T09:12:06;100874.41;;;3.04;100.00
64340;BME280;63709;53.258;-8.814;2023-12-04T09:14:32;100876.88;;;3.07;100.00
64340;BME280;63709;53.258;-8.814;2023-12-04T09:16:58;100826.81;;;2.87;100.00
64340;BME280;63709;53.258;-8.814;2023-12-04T09:19:23;100865.41;;;3.29;100.00
64340;BME280;63709;53.258;-8.814;2023-12-04T09:21:49;100875.75;;;3.33;100.00
64340;BME280;63709;53.258;-8.814;2023-12-04T09:24:14;100877.13;;;3.42;100.00
64340;BME280;63709;53.258;-8.814;2023-12-04T09:26:40;100879.47;;;3.48;100.00
64340;BME280;63709;53.258;-8.814;2023-12-04T09:29:05;100882.50;;;3.59;100.00
64340;BME280;63709;53.258;-8.814;2023-12-04T09:31:31;100882.00;;;3.70;100.00
64340;BME280;63709;53.258;-8.814;2023-12-04T09:33:56;100888.16;;;3.71;100.00
64340;BME280;63709;53.258;-8.814;2023-12-04T09:36:22;100873.69;;;3.79;100.00
64340;BME280;63709;53.258;-8.814;2023-12-04T09:38:47;100861.84;;;3.88;100.00
64340;BME280;63709;53.258;-8.814;2023-12-04T09:41:15;100863.19;;;3.97;100.00
64340;BME280;63709;53.258;-8.814;2023-12-04T09:43:40;100866.75;;;3.96;100.00
64340;BME280;63709;53.258;-8.814;2023-12-04T09:46:07;100868.75;;;4.09;100.00
64340;BME280;63709;53.258;-8.814;2023-12-04T09:48:34;100863.34;;;4.12;100.00
64340;BME280;63709;53.258;-8.814;2023-12-04T09:50:59;100868.47;;;4.16;100.00
64340;BME280;63709;53.258;-8.814;2023-12-04T09:53:26;100860.06;;;4.44;100.00
64340;BME280;63709;53.258;-8.814;2023-12-04T09:55:53;100862.34;;;4.69;100.00
64340;BME280;63709;53.258;-8.814;2023-12-04T09:58:22;100853.88;;;4.97;100.00
64340;BME280;63709;53.258;-8.814;2023-12-04T10:00:49;100877.13;;;5.58;100.00
64340;BME280;63709;53.258;-8.814;2023-12-04T10:03:15;100887.22;;;6.00;100.00
64340;BME280;63709;53.258;-8.814;2023-12-04T10:05:44;100865.50;;;6.41;100.00
64340;BME280;63709;53.258;-8.814;2023-12-04T10:08:11;100884.13;;;6.71;100.00
64340;BME280;63709;53.258;-8.814;2023-12-04T10:10:36;100887.47;;;6.75;100.00
64340;BME280;63709;53.258;-8.814;2023-12-04T10:13:01;100886.63;;;6.89;100.00
64340;BME280;63709;53.258;-8.814;2023-12-04T10:15:28;100879.22;;;6.79;100.00
64340;BME280;63709;53.258;-8.814;2023-12-04T10:17:53;100879.47;;;6.91;100.00
64340;BME280;63709;53.258;-8.814;2023-12-04T10:20:20;100881.50;;;6.86;100.00
64340;BME280;63709;53.258;-8.814;2023-12-04T10:23:00;100876.31;;;6.84;100.00
64340;BME280;63709;53.258;-8.814;2023-12-04T10:25:28;100880.69;;;6.69;100.00
64340;BME280;63709;53.258;-8.814;2023-12-04T10:28:08;100889.66;;;7.13;100.00
64340;BME280;63709;53.258;-8.814;2023-12-04T10:30:34;100896.97;;;7.38;100.00
64340;BME280;63709;53.258;-8.814;2023-12-04T10:33:04;100871.97;;;7.42;100.00
64340;BME280;63709;53.258;-8.814;2023-12-04T10:35:32;100904.28;;;7.20;100.00
64340;BME280;63709;53.258;-8.814;2023-12-04T10:37:58;100901.66;;;7.34;100.00
64340;BME280;63709;53.258;-8.814;2023-12-04T10:40:29;100902.47;;;7.20;100.00
64340;BME280;63709;53.258;-8.814;2023-12-04T10:45:34;100911.81;;;7.42;100.00
64340;BME280;63709;53.258;-8.814;2023-12-04T10:48:00;100911.81;;;7.56;100.00
64340;BME280;63709;53.258;-8.814;2023-12-04T10:50:26;100903.75;;;7.58;100.00
64340;BME280;63709;53.258;-8.814;2023-12-04T10:52:54;100888.69;;;7.72;100.00
64340;BME280;63709;53.258;-8.814;2023-12-04T10:55:21;100908.38;;;7.97;100.00
64340;BME280;63709;53.258;-8.814;2023-12-04T10:57:47;100886.00;;;8.01;100.00
64340;BME280;63709;53.258;-8.814;2023-12-04T11:00:15;100894.63;;;8.05;100.00
64340;BME280;63709;53.258;-8.814;2023-12-04T11:02:43;100872.97;;;7.96;100.00
64340;BME280;63709;53.258;-8.814;2023-12-04T11:05:14;100898.88;;;8.21;100.00
64340;BME280;63709;53.258;-8.814;2023-12-04T11:07:48;100887.38;;;8.21;100.00
64340;BME280;63709;53.258;-8.814;2023-12-04T11:10:17;100895.19;;;8.38;100.00
64340;BME280;63709;53.258;-8.814;2023-12-04T11:12:49;100891.06;;;8.33;100.00
64340;BME280;63709;53.258;-8.814;2023-12-04T11:15:17;100894.56;;;8.47;100.00
64340;BME280;63709;53.258;-8.814;2023-12-04T11:17:49;100893.16;;;8.69;100.00
64340;BME280;63709;53.258;-8.814;2023-12-04T11:20:20;100900.91;;;8.99;100.00
64340;BME280;63709;53.258;-8.814;2023-12-04T11:22:48;100895.41;;;9.15;100.00
64340;BME280;63709;53.258;-8.814;2023-12-04T11:25:14;100899.66;;;9.30;100.00
64340;BME280;63709;53.258;-8.814;2023-12-04T11:27:41;100899.13;;;9.12;100.00
64340;BME280;63709;53.258;-8.814;2023-12-04T11:30:08;100883.38;;;9.09;100.00
64340;BME280;63709;53.258;-8.814;2023-12-04T11:32:45;100898.06;;;9.15;100.00
64340;BME280;63709;53.258;-8.814;2023-12-04T11:35:18;100886.16;;;9.20;100.00
64340;BME280;63709;53.258;-8.814;2023-12-04T11:37:44;100889.50;;;8.97;100.00
64340;BME280;63709;53.258;-8.814;2023-12-04T11:40:12;100893.56;;;8.90;100.00
64340;BME280;63709;53.258;-8.814;2023-12-04T11:42:39;100893.97;;;8.84;100.00
64340;BME280;63709;53.258;-8.814;2023-12-04T11:45:06;100887.34;;;8.89;100.00
64340;BME280;63709;53.258;-8.814;2023-12-04T11:47:55;100877.28;;;8.67;100.00
64340;BME280;63709;53.258;-8.814;2023-12-04T11:50:25;100883.19;;;8.85;100.00
64340;BME280;63709;53.258;-8.814;2023-12-04T11:52:50;100880.53;;;8.85;100.00
64340;BME280;63709;53.258;-8.814;2023-12-04T11:55:26;100853.94;;;8.45;100.00
64340;BME280;63709;53.258;-8.814;2023-12-04T11:57:54;100884.13;;;8.71;100.00
64340;BME280;63709;53.258;-8.814;2023-12-04T12:00:21;100886.22;;;8.66;100.00
64340;BME280;63709;53.258;-8.814;2023-12-04T12:03:08;100887.53;;;8.73;100.00
64340;BME280;63709;53.258;-8.814;2023-12-04T12:05:34;100884.81;;;8.88;100.00
64340;BME280;63709;53.258;-8.814;2023-12-04T12:08:03;100884.22;;;9.10;100.00
64340;BME280;63709;53.258;-8.814;2023-12-04T12:10:29;100880.31;;;9.28;100.00
64340;BME280;63709;53.258;-8.814;2023-12-04T12:12:55;100880.72;;;9.48;100.00
64340;BME280;63709;53.258;-8.814;2023-12-04T12:15:22;100892.34;;;9.47;100.00
64340;BME280;63709;53.258;-8.814;2023-12-04T12:17:47;100887.56;;;9.39;100.00
64340;BME280;63709;53.258;-8.814;2023-12-04T12:20:14;100868.88;;;9.26;100.00
64340;BME280;63709;53.258;-8.814;2023-12-04T12:22:40;100888.16;;;9.17;100.00
64340;BME280;63709;53.258;-8.814;2023-12-04T12:25:08;100874.41;;;9.10;100.00
64340;BME280;63709;53.258;-8.814;2023-12-04T12:27:34;100886.88;;;9.10;100.00
64340;BME280;63709;53.258;-8.814;2023-12-04T12:30:00;100886.56;;;9.14;100.00
64340;BME280;63709;53.258;-8.814;2023-12-04T12:32:26;100890.63;;;9.20;100.00
64340;BME280;63709;53.258;-8.814;2023-12-04T12:34:52;100900.31;;;9.21;100.00
64340;BME280;63709;53.258;-8.814;2023-12-04T12:37:18;100900.31;;;9.34;100.00